createdAt,value
2022-07-29T00:01:48.300Z,17.33
2022-07-29T00:04:17.614Z,17.35
2022-07-29T00:06:46.327Z,17.33
2022-07-29T00:09:14.878Z,17.30
2022-07-29T00:11:43.357Z,17.25
2022-07-29T00:14:13.657Z,17.21
2022-07-29T00:16:42.486Z,17.20
2022-07-29T00:19:10.999Z,17.18
2022-07-29T00:21:39.469Z,17.14
2022-07-29T00:24:08.281Z,17.10
2022-07-29T00:26:36.785Z,17.08
2022-07-29T00:29:33.178Z,17.04
2022-07-29T00:31:56.264Z,16.99
2022-07-29T00:34:38.602Z,16.97
2022-07-29T00:37:07.921Z,16.94
2022-07-29T00:39:36.572Z,16.92
2022-07-29T00:42:05.800Z,16.92
2022-07-29T00:44:39.094Z,16.89
2022-07-29T00:47:09.405Z,16.85
2022-07-29T00:49:38.161Z,16.79
2022-07-29T00:52:08.062Z,16.69
2022-07-29T00:54:44.182Z,16.64
2022-07-29T00:57:14.441Z,16.70
2022-07-29T00:59:42.917Z,16.73
2022-07-29T01:02:13.064Z,16.69
2022-07-29T01:04:42.975Z,16.71
2022-07-29T01:07:12.643Z,16.72
2022-07-29T01:09:46.048Z,16.75
2022-07-29T01:12:18.878Z,16.81
2022-07-29T01:14:48.445Z,16.79
2022-07-29T01:17:23.068Z,16.79
2022-07-29T01:19:58.103Z,16.74
2022-07-29T01:22:39.033Z,16.71
2022-07-29T01:25:34.708Z,16.67
2022-07-29T01:28:17.190Z,16.65
2022-07-29T01:30:48.911Z,16.64
2022-07-29T01:33:36.980Z,16.61
2022-07-29T01:36:12.972Z,16.59
2022-07-29T01:38:44.959Z,16.54
2022-07-29T01:41:18.699Z,16.47
2022-07-29T01:43:53.824Z,16.49
2022-07-29T01:46:30.322Z,16.49
2022-07-29T01:49:02.582Z,16.47
2022-07-29T01:51:36.127Z,16.46
2022-07-29T01:54:08.926Z,16.45
2022-07-29T01:56:40.103Z,16.48
2022-07-29T01:59:11.433Z,16.48
2022-07-29T02:01:44.896Z,16.46
2022-07-29T02:04:28.850Z,16.44
2022-07-29T02:07:05.728Z,16.43
2022-07-29T02:09:37.691Z,16.39
2022-07-29T02:12:07.976Z,16.38
2022-07-29T02:14:46.842Z,16.34
2022-07-29T02:17:23.093Z,16.34
2022-07-29T02:19:52.142Z,16.35
2022-07-29T02:22:22.085Z,16.27
2022-07-29T02:24:52.657Z,16.26
2022-07-29T02:27:24.514Z,16.24
2022-07-29T02:29:54.421Z,16.25
2022-07-29T02:32:26.618Z,16.24
2022-07-29T02:34:56.494Z,16.24
2022-07-29T02:37:26.263Z,16.20
2022-07-29T02:39:57.194Z,16.16
2022-07-29T02:42:28.649Z,16.14
2022-07-29T02:44:57.372Z,16.13
2022-07-29T02:47:41.411Z,16.14
2022-07-29T02:50:14.967Z,16.11
2022-07-29T02:52:46.542Z,16.09
2022-07-29T02:55:21.237Z,16.08
2022-07-29T02:57:57.012Z,16.10
2022-07-29T03:00:29.133Z,16.11
2022-07-29T03:03:01.887Z,16.08
2022-07-29T03:05:31.183Z,16.08
2022-07-29T03:08:02.965Z,16.07
2022-07-29T03:10:32.470Z,16.07
2022-07-29T03:13:02.668Z,16.05
2022-07-29T03:15:31.923Z,16.07
2022-07-29T03:18:02.560Z,16.07
2022-07-29T03:20:31.240Z,16.04
2022-07-29T03:22:59.789Z,16.04
2022-07-29T03:25:28.382Z,16.04
2022-07-29T03:27:57.452Z,16.05
2022-07-29T03:30:26.315Z,16.04
2022-07-29T03:32:56.629Z,16.05
2022-07-29T03:35:29.266Z,16.03
2022-07-29T03:37:57.749Z,16.00
2022-07-29T03:40:33.085Z,16.01
2022-07-29T03:43:04.158Z,15.98
2022-07-29T03:45:34.927Z,16.00
2022-07-29T03:48:07.667Z,16.01
2022-07-29T03:50:38.339Z,16.01
2022-07-29T03:53:06.842Z,16.01
2022-07-29T03:55:42.359Z,16.04
2022-07-29T03:58:13.070Z,16.10
2022-07-29T04:00:42.613Z,16.13
2022-07-29T04:03:12.181Z,16.13
2022-07-29T04:05:45.629Z,16.18
2022-07-29T04:08:14.100Z,16.21
2022-07-29T04:10:42.583Z,16.16
2022-07-29T04:13:11.016Z,16.16
2022-07-29T04:15:39.468Z,16.18
2022-07-29T04:18:07.953Z,16.22
2022-07-29T04:20:36.504Z,16.25
2022-07-29T04:23:06.322Z,16.30
2022-07-29T04:25:34.817Z,16.33
2022-07-29T04:28:03.276Z,16.36
2022-07-29T04:30:32.780Z,16.37
2022-07-29T04:33:01.849Z,16.40
2022-07-29T04:35:30.557Z,16.36
2022-07-29T04:38:15.855Z,16.35
2022-07-29T04:40:45.678Z,16.33
2022-07-29T04:43:16.898Z,16.27
2022-07-29T04:45:51.488Z,16.26
2022-07-29T04:48:22.909Z,16.22
2022-07-29T04:50:55.217Z,16.21
2022-07-29T04:53:25.077Z,16.26
2022-07-29T04:55:53.565Z,16.30
2022-07-29T04:58:24.221Z,16.35
2022-07-29T05:00:53.180Z,16.37
2022-07-29T05:03:21.794Z,16.33
2022-07-29T05:05:50.491Z,16.30
2022-07-29T05:08:18.901Z,16.36
2022-07-29T05:10:48.931Z,16.42
2022-07-29T05:13:17.385Z,16.48
2022-07-29T05:15:45.955Z,16.54
2022-07-29T05:18:15.090Z,16.58
2022-07-29T05:20:43.669Z,16.63
2022-07-29T05:23:13.858Z,16.70
2022-07-29T05:25:43.990Z,16.71
2022-07-29T05:28:14.704Z,16.72
2022-07-29T05:30:43.581Z,16.72
2022-07-29T05:33:35.632Z,16.77
2022-07-29T05:36:01.308Z,16.82
2022-07-29T05:38:30.046Z,16.86
2022-07-29T05:40:59.726Z,16.84
2022-07-29T05:43:29.900Z,16.87
2022-07-29T05:45:58.826Z,16.87
2022-07-29T05:48:27.477Z,16.85
2022-07-29T05:50:56.114Z,16.81
2022-07-29T05:53:24.664Z,16.79
2022-07-29T05:55:53.163Z,16.85
2022-07-29T05:58:21.609Z,16.85
2022-07-29T06:00:51.568Z,16.91
2022-07-29T06:03:20.141Z,17.01
2022-07-29T06:05:48.545Z,17.11
2022-07-29T06:08:16.998Z,17.21
2022-07-29T06:10:46.505Z,17.29
2022-07-29T06:13:16.882Z,17.40
2022-07-29T06:15:45.552Z,17.50
2022-07-29T06:18:15.721Z,17.58
2022-07-29T06:20:44.203Z,17.63
2022-07-29T06:23:12.684Z,17.67
2022-07-29T06:25:42.270Z,17.77
2022-07-29T06:28:10.709Z,17.85
2022-07-29T06:30:39.302Z,17.95
2022-07-29T06:33:07.885Z,18.05
2022-07-29T06:35:42.407Z,18.09
2022-07-29T06:38:30.668Z,18.13
2022-07-29T06:41:04.805Z,18.18
2022-07-29T06:43:50.509Z,18.23
2022-07-29T06:46:21.924Z,18.30
2022-07-29T06:48:51.158Z,18.36
2022-07-29T06:51:23.192Z,18.42
2022-07-29T06:54:00.514Z,18.48
2022-07-29T06:56:39.073Z,18.55
2022-07-29T06:59:09.526Z,18.60
2022-07-29T07:01:39.059Z,18.64
2022-07-29T07:04:09.604Z,18.68
2022-07-29T07:06:39.865Z,18.73
2022-07-29T07:09:08.427Z,18.77
2022-07-29T07:11:36.915Z,18.81
2022-07-29T07:14:05.434Z,18.86
2022-07-29T07:16:34.428Z,18.95
2022-07-29T07:19:02.952Z,19.03
2022-07-29T07:21:31.601Z,19.10
2022-07-29T07:24:01.986Z,19.15
2022-07-29T07:26:30.472Z,19.18
2022-07-29T07:28:58.981Z,19.23
2022-07-29T07:31:27.532Z,19.29
2022-07-29T07:33:56.077Z,19.35
2022-07-29T07:36:24.931Z,19.40
2022-07-29T07:38:53.388Z,19.46
2022-07-29T07:41:24.002Z,19.53
2022-07-29T07:43:52.429Z,19.61
2022-07-29T07:46:21.080Z,19.67
2022-07-29T07:48:49.593Z,19.75
2022-07-29T07:51:18.085Z,19.82
2022-07-29T07:53:50.418Z,19.87
2022-07-29T07:56:19.041Z,19.94
2022-07-29T07:58:48.833Z,20.01
2022-07-29T08:01:20.109Z,20.09
2022-07-29T08:03:48.772Z,20.19
2022-07-29T08:06:17.706Z,20.30
2022-07-29T08:08:46.186Z,20.42
2022-07-29T08:11:15.520Z,20.52
2022-07-29T08:13:44.187Z,20.64
2022-07-29T08:16:14.377Z,20.74
2022-07-29T08:18:44.894Z,20.83
2022-07-29T08:21:14.859Z,20.92
2022-07-29T08:23:57.633Z,21.01
2022-07-29T08:26:27.383Z,21.11
2022-07-29T08:28:56.686Z,21.20
2022-07-29T08:31:26.640Z,21.27
2022-07-29T08:33:57.105Z,21.47
2022-07-29T08:36:25.919Z,21.51
2022-07-29T08:38:54.561Z,21.56
2022-07-29T08:41:23.458Z,21.61
2022-07-29T08:43:52.885Z,21.62
2022-07-29T08:46:22.212Z,21.69
2022-07-29T08:48:52.261Z,21.75
2022-07-29T08:51:22.107Z,21.83
2022-07-29T08:53:51.933Z,21.89
2022-07-29T08:56:21.487Z,22.07
2022-07-29T08:58:52.235Z,22.18
2022-07-29T09:01:35.814Z,22.22
2022-07-29T09:04:15.263Z,22.24
2022-07-29T09:09:17.312Z,22.25
2022-07-29T09:11:45.928Z,22.28
2022-07-29T09:14:15.348Z,22.29
2022-07-29T09:16:53.535Z,22.35
2022-07-29T09:19:25.635Z,22.40
2022-07-29T09:22:03.442Z,22.47
2022-07-29T09:24:40.711Z,22.58
2022-07-29T09:27:21.289Z,22.68
2022-07-29T09:29:58.079Z,22.78
2022-07-29T09:32:27.212Z,22.90
2022-07-29T09:35:18.939Z,23.11
2022-07-29T09:37:48.052Z,23.23
2022-07-29T09:40:18.778Z,23.35
2022-07-29T09:42:47.873Z,23.44
2022-07-29T09:45:29.470Z,23.50
2022-07-29T09:48:01.378Z,23.57
2022-07-29T09:50:42.441Z,23.65
2022-07-29T09:53:11.449Z,23.72
2022-07-29T09:55:50.774Z,23.80
2022-07-29T09:58:21.430Z,23.88
2022-07-29T10:00:51.961Z,23.97
2022-07-29T10:03:21.575Z,24.02
2022-07-29T10:06:07.508Z,24.12
2022-07-29T10:08:36.042Z,24.21
2022-07-29T10:11:12.896Z,24.31
2022-07-29T10:13:43.208Z,24.39
2022-07-29T10:16:14.045Z,24.54
2022-07-29T10:18:44.499Z,24.66
2022-07-29T10:21:35.513Z,24.78
2022-07-29T10:24:03.963Z,24.91
2022-07-29T10:26:32.815Z,25.06
2022-07-29T10:29:02.416Z,25.14
2022-07-29T10:31:45.918Z,25.21
2022-07-29T10:34:25.396Z,25.28
2022-07-29T10:37:05.892Z,25.39
2022-07-29T10:39:49.943Z,25.42
2022-07-29T10:42:29.522Z,25.65
2022-07-29T10:45:05.777Z,25.81
2022-07-29T10:47:35.356Z,26.10
2022-07-29T10:50:06.407Z,26.44
2022-07-29T10:55:37.548Z,27.39
2022-07-29T10:58:19.010Z,27.54
2022-07-29T11:00:49.655Z,27.76
2022-07-29T11:03:49.358Z,28.06
2022-07-29T11:06:26.330Z,28.03
2022-07-29T11:09:34.675Z,27.86
2022-07-29T11:12:46.992Z,27.67
2022-07-29T11:15:19.893Z,27.61
2022-07-29T11:18:08.089Z,27.40
2022-07-29T11:20:45.752Z,27.16
2022-07-29T11:26:25.523Z,27.07
2022-07-29T11:29:01.700Z,27.22
2022-07-29T11:31:43.798Z,27.26
2022-07-29T11:34:28.013Z,27.60
2022-07-29T11:37:27.679Z,28.16
2022-07-29T11:40:20.220Z,28.39
2022-07-29T11:42:53.663Z,28.36
2022-07-29T11:45:41.520Z,28.62
2022-07-29T11:48:31.812Z,29.07
2022-07-29T11:51:02.961Z,29.49
2022-07-29T11:53:32.849Z,29.74
2022-07-29T11:56:03.620Z,29.62
2022-07-29T11:58:33.046Z,29.31
2022-07-29T12:04:06.886Z,29.07
2022-07-29T12:06:35.662Z,28.91
2022-07-29T12:09:11.371Z,29.25
2022-07-29T12:11:45.102Z,29.67
2022-07-29T12:14:29.302Z,30.12
2022-07-29T12:16:58.327Z,30.47
2022-07-29T12:19:28.636Z,30.56
2022-07-29T12:22:02.210Z,30.50
2022-07-29T12:24:45.138Z,30.84
2022-07-29T12:27:18.907Z,30.83
2022-07-29T12:29:58.595Z,31.17
2022-07-29T12:32:33.690Z,31.24
2022-07-29T12:35:06.040Z,30.89
2022-07-29T12:37:41.109Z,30.87
2022-07-29T12:40:12.712Z,31.05
2022-07-29T12:42:41.832Z,31.04
2022-07-29T12:45:10.656Z,30.87
2022-07-29T12:47:53.886Z,30.50
2022-07-29T12:50:26.448Z,30.25
2022-07-29T12:52:55.137Z,30.45
2022-07-29T12:55:49.728Z,30.25
2022-07-29T12:58:32.084Z,30.48
2022-07-29T13:01:02.631Z,30.95
2022-07-29T13:03:43.442Z,31.29
2022-07-29T13:06:38.986Z,31.64
2022-07-29T13:09:10.775Z,31.54
2022-07-29T13:11:46.566Z,31.38
2022-07-29T13:14:32.738Z,31.03
2022-07-29T13:17:06.917Z,30.79
2022-07-29T13:19:38.051Z,30.61
2022-07-29T13:22:08.325Z,30.65
2022-07-29T13:24:47.655Z,30.97
2022-07-29T13:27:16.731Z,30.97
2022-07-29T13:29:45.384Z,31.36
2022-07-29T13:32:14.518Z,31.45
2022-07-29T13:34:42.899Z,31.58
2022-07-29T13:37:12.875Z,31.12
2022-07-29T13:39:41.614Z,31.22
2022-07-29T13:42:11.021Z,31.27
2022-07-29T13:44:39.775Z,31.68
2022-07-29T13:47:09.117Z,31.93
2022-07-29T13:49:37.848Z,31.94
2022-07-29T13:52:08.410Z,32.07
2022-07-29T13:54:42.270Z,31.81
2022-07-29T13:57:12.440Z,31.48
2022-07-29T13:59:41.253Z,31.55
2022-07-29T14:02:11.049Z,31.53
2022-07-29T14:04:39.879Z,31.73
2022-07-29T14:07:08.852Z,31.93
2022-07-29T14:09:41.818Z,31.96
2022-07-29T14:12:11.142Z,31.75
2022-07-29T14:14:39.648Z,32.03
2022-07-29T14:17:08.350Z,31.85
2022-07-29T14:19:38.947Z,31.51
2022-07-29T14:22:09.473Z,31.53
2022-07-29T14:24:40.957Z,31.84
2022-07-29T14:27:10.327Z,31.63
2022-07-29T14:29:39.259Z,31.54
2022-07-29T14:32:08.605Z,31.80
2022-07-29T14:34:37.691Z,31.85
2022-07-29T14:37:07.250Z,31.31
2022-07-29T14:39:42.840Z,30.96
2022-07-29T14:42:14.078Z,30.98
2022-07-29T14:44:42.937Z,31.21
2022-07-29T14:47:13.335Z,31.42
2022-07-29T14:49:41.782Z,31.14
2022-07-29T14:52:10.192Z,31.39
2022-07-29T14:54:39.051Z,31.38
2022-07-29T14:57:08.590Z,31.32
2022-07-29T14:59:38.453Z,31.04
2022-07-29T15:02:06.986Z,31.22
2022-07-29T15:04:36.378Z,31.13
2022-07-29T15:07:05.122Z,31.17
2022-07-29T15:09:33.605Z,31.39
2022-07-29T15:12:09.207Z,31.54
2022-07-29T15:14:39.290Z,31.52
2022-07-29T15:17:07.817Z,31.62
2022-07-29T15:19:36.428Z,31.59
2022-07-29T15:22:05.888Z,31.68
2022-07-29T15:24:35.139Z,31.66
2022-07-29T15:27:03.698Z,31.44
2022-07-29T15:29:32.193Z,30.93
2022-07-29T15:32:02.609Z,30.51
2022-07-29T15:34:31.367Z,30.18
2022-07-29T15:36:59.771Z,30.47
2022-07-29T15:39:28.370Z,30.64
2022-07-29T15:41:57.184Z,30.84
2022-07-29T15:44:25.874Z,30.99
2022-07-29T15:47:07.276Z,31.11
2022-07-29T15:49:48.245Z,30.83
2022-07-29T15:52:25.333Z,30.73
2022-07-29T15:54:56.184Z,30.71
2022-07-29T15:57:25.785Z,30.73
2022-07-29T15:59:54.308Z,30.61
2022-07-29T16:02:22.887Z,30.55
2022-07-29T16:04:52.993Z,30.14
2022-07-29T16:07:21.497Z,29.81
2022-07-29T16:09:53.209Z,29.74
2022-07-29T16:12:22.028Z,29.71
2022-07-29T16:14:51.276Z,29.50
2022-07-29T16:17:20.700Z,29.52
2022-07-29T16:19:49.233Z,29.49
2022-07-29T16:22:19.081Z,29.44
2022-07-29T16:24:47.561Z,29.39
2022-07-29T16:27:16.039Z,29.32
2022-07-29T16:29:46.755Z,29.17
2022-07-29T16:32:15.230Z,29.01
2022-07-29T16:34:50.716Z,28.83
2022-07-29T16:37:20.565Z,28.70
2022-07-29T16:39:48.964Z,28.65
2022-07-29T16:42:36.909Z,28.58
2022-07-29T16:45:06.678Z,28.46
2022-07-29T16:47:35.201Z,28.41
2022-07-29T16:50:03.933Z,28.24
2022-07-29T16:52:33.763Z,28.17
2022-07-29T16:55:02.177Z,28.09
2022-07-29T16:57:30.710Z,28.06
2022-07-29T16:59:59.381Z,28.00
2022-07-29T17:02:28.008Z,27.96
2022-07-29T17:04:56.653Z,27.88
2022-07-29T17:07:25.076Z,27.78
2022-07-29T17:09:56.374Z,27.68
2022-07-29T17:12:27.589Z,27.60
2022-07-29T17:14:56.029Z,27.52
2022-07-29T17:17:38.563Z,27.52
2022-07-29T17:20:09.421Z,27.48
2022-07-29T17:22:38.372Z,27.46
2022-07-29T17:25:10.030Z,27.45
2022-07-29T17:27:38.496Z,27.42
2022-07-29T17:30:08.364Z,27.36
2022-07-29T17:32:38.765Z,27.32
2022-07-29T17:35:29.613Z,27.20
2022-07-29T17:37:58.188Z,27.06
2022-07-29T17:40:28.005Z,26.93
2022-07-29T17:42:56.433Z,26.83
2022-07-29T17:45:24.896Z,26.74
2022-07-29T17:47:53.611Z,26.68
2022-07-29T17:50:22.143Z,26.62
2022-07-29T17:52:50.575Z,26.59
2022-07-29T17:55:19.141Z,26.54
2022-07-29T17:57:49.027Z,26.46
2022-07-29T18:00:17.786Z,26.42
2022-07-29T18:02:46.600Z,26.35
2022-07-29T18:05:15.855Z,26.33
2022-07-29T18:07:44.303Z,26.30
2022-07-29T18:10:12.880Z,26.28
2022-07-29T18:12:41.442Z,26.24
2022-07-29T18:15:11.971Z,26.19
2022-07-29T18:17:56.417Z,26.14
2022-07-29T18:20:26.890Z,26.07
2022-07-29T18:22:55.388Z,26.04
2022-07-29T18:25:23.937Z,25.99
2022-07-29T18:27:55.245Z,25.95
2022-07-29T18:30:27.111Z,25.84
2022-07-29T18:33:19.753Z,25.84
2022-07-29T18:35:44.515Z,25.78
2022-07-29T18:38:13.025Z,25.75
2022-07-29T18:40:42.229Z,25.73
2022-07-29T18:43:10.668Z,25.69
2022-07-29T18:45:40.695Z,25.65
2022-07-29T18:48:12.703Z,25.61
2022-07-29T18:50:42.320Z,25.57
2022-07-29T18:53:10.805Z,25.53
2022-07-29T18:55:39.286Z,25.45
2022-07-29T18:58:09.129Z,25.42
2022-07-29T19:00:37.568Z,25.34
2022-07-29T19:03:07.505Z,25.30
2022-07-29T19:05:36.107Z,25.25
2022-07-29T19:08:04.766Z,25.20
2022-07-29T19:10:33.637Z,25.16
2022-07-29T19:13:02.121Z,25.10
2022-07-29T19:15:30.564Z,25.09
2022-07-29T19:18:01.327Z,25.02
2022-07-29T19:20:31.465Z,24.99
2022-07-29T19:23:00.025Z,24.95
2022-07-29T19:25:28.569Z,24.87
2022-07-29T19:27:58.505Z,24.82
2022-07-29T19:30:27.745Z,24.77
2022-07-29T19:32:56.218Z,24.71
2022-07-29T19:35:32.124Z,24.67
2022-07-29T19:38:03.273Z,24.62
2022-07-29T19:40:31.945Z,24.58
2022-07-29T19:43:01.005Z,24.51
2022-07-29T19:45:30.386Z,24.46
2022-07-29T19:48:01.550Z,24.43
2022-07-29T19:50:30.417Z,24.33
2022-07-29T19:52:59.215Z,24.30
2022-07-29T19:55:29.190Z,24.17
2022-07-29T19:57:58.935Z,24.15
2022-07-29T20:00:28.746Z,24.12
2022-07-29T20:02:59.575Z,24.05
2022-07-29T20:05:28.430Z,24.03
2022-07-29T20:07:57.303Z,24.01
2022-07-29T20:10:26.237Z,23.90
2022-07-29T20:12:56.060Z,23.77
2022-07-29T20:15:24.995Z,23.75
2022-07-29T20:17:57.157Z,23.72
2022-07-29T20:20:27.082Z,23.70
2022-07-29T20:22:55.806Z,23.70
2022-07-29T20:25:25.006Z,23.69
2022-07-29T20:27:54.485Z,23.63
2022-07-29T20:30:25.049Z,23.60
2022-07-29T20:32:53.654Z,23.57
2022-07-29T20:35:22.951Z,23.52
2022-07-29T20:37:55.905Z,23.48
2022-07-29T20:40:26.016Z,23.46
2022-07-29T20:42:54.682Z,23.41
2022-07-29T20:45:25.057Z,23.34
2022-07-29T20:47:53.759Z,23.31
2022-07-29T20:50:24.495Z,23.20
2022-07-29T20:52:53.605Z,23.17
2022-07-29T20:55:22.607Z,23.18
2022-07-29T20:57:51.193Z,23.11
2022-07-29T21:00:19.751Z,23.07
2022-07-29T21:02:49.907Z,23.00
2022-07-29T21:05:18.505Z,22.98
2022-07-29T21:07:47.140Z,22.97
2022-07-29T21:10:18.345Z,22.97
2022-07-29T21:12:47.506Z,22.93
2022-07-29T21:15:18.605Z,22.89
2022-07-29T21:17:48.026Z,22.88
2022-07-29T21:20:20.641Z,22.86
2022-07-29T21:22:49.244Z,22.85
2022-07-29T21:25:18.504Z,22.82
2022-07-29T21:28:06.803Z,22.81
2022-07-29T21:30:35.466Z,22.81
2022-07-29T21:33:04.563Z,22.81
2022-07-29T21:38:23.581Z,22.75
2022-07-29T21:40:53.421Z,22.72
2022-07-29T21:43:22.580Z,22.68
2022-07-29T21:45:51.390Z,22.60
2022-07-29T21:48:21.078Z,22.54
2022-07-29T21:50:52.363Z,22.55
2022-07-29T21:53:22.866Z,22.52
2022-07-29T21:55:51.845Z,22.53
2022-07-29T21:58:22.948Z,22.52
2022-07-29T22:00:51.517Z,22.48
2022-07-29T22:03:20.326Z,22.47
2022-07-29T22:05:50.201Z,22.36
2022-07-29T22:08:21.616Z,22.34
2022-07-29T22:10:50.244Z,22.30
2022-07-29T22:13:18.834Z,22.25
2022-07-29T22:15:47.422Z,22.22
2022-07-29T22:18:20.621Z,22.22
2022-07-29T22:20:51.360Z,22.22
2022-07-29T22:23:19.944Z,22.22
2022-07-29T22:25:48.417Z,22.21
2022-07-29T22:28:16.903Z,22.20
2022-07-29T22:30:45.323Z,22.18
2022-07-29T22:33:17.686Z,22.15
2022-07-29T22:35:48.989Z,22.12
2022-07-29T22:38:19.549Z,22.09
2022-07-29T22:40:50.734Z,22.07
2022-07-29T22:43:19.323Z,22.06
2022-07-29T22:45:47.891Z,22.02
2022-07-29T22:48:16.475Z,21.98
2022-07-29T22:50:44.925Z,21.90
2022-07-29T22:53:13.466Z,21.88
2022-07-29T22:55:43.216Z,21.87
2022-07-29T22:58:12.088Z,21.83
2022-07-29T23:00:41.200Z,21.81
2022-07-29T23:03:09.937Z,21.78
2022-07-29T23:05:38.489Z,21.75
2022-07-29T23:08:07.015Z,21.72
2022-07-29T23:10:35.585Z,21.68
2022-07-29T23:13:05.413Z,21.66
2022-07-29T23:15:33.886Z,21.62
2022-07-29T23:18:02.434Z,21.57
2022-07-29T23:20:31.012Z,21.53
2022-07-29T23:22:59.481Z,21.51
2022-07-29T23:25:27.997Z,21.50
2022-07-29T23:27:56.439Z,21.46
2022-07-29T23:30:26.689Z,21.44
2022-07-29T23:32:55.478Z,21.40
2022-07-29T23:35:25.265Z,21.31
2022-07-29T23:37:53.919Z,21.29
2022-07-29T23:40:22.388Z,21.28
2022-07-29T23:42:50.860Z,21.26
2022-07-29T23:45:19.701Z,21.24
2022-07-29T23:47:49.505Z,21.21
2022-07-29T23:50:17.908Z,21.20
2022-07-29T23:52:46.374Z,21.17
2022-07-29T23:55:36.372Z,21.15
2022-07-29T23:58:04.231Z,21.11
